Time;durP1;ratioP1;P1;durP2;ratioP2;P2;SDS_P1;SDS_P2;PMS_P1;PMS_P2;Temp;Humidity;BMP_temperature;BMP_pressure;BME280_temperature;BME280_humidity;BME280_pressure;Samples;Min_cycle;Max_cycle;Signal;HPM_P1;HPM_P2
2022/04/20 00:01:05;;;;;;;;;26.33;20.00;;;;;14.18;49.81;100859.31;5057603;28;45244;-46
2022/04/20 00:03:31;;;;;;;;;31.67;21.00;;;;;14.17;50.50;100863.81;5057550;28;45438;-48
2022/04/20 00:05:57;;;;;;;;;25.67;19.67;;;;;14.16;50.11;100855.97;5057144;28;45384;-45
2022/04/20 00:08:22;;;;;;;;;27.00;23.00;;;;;14.12;50.34;100855.47;5057261;28;46306;-47
2022/04/20 00:10:48;;;;;;;;;24.00;23.00;;;;;14.11;50.21;100860.97;5057686;28;45550;-45
2022/04/20 00:13:13;;;;;;;;;34.33;23.67;;;;;14.09;50.60;100857.66;5057435;28;45364;-44
2022/04/20 00:15:38;;;;;;;;;24.00;20.33;;;;;13.93;49.81;100832.53;5057743;28;45398;-46
2022/04/20 00:18:04;;;;;;;;;30.33;22.33;;;;;14.00;50.79;100859.47;5057557;28;46304;-45
2022/04/20 00:20:29;;;;;;;;;23.00;19.00;;;;;13.97;50.77;100855.28;5057013;28;45286;-46
2022/04/20 00:22:55;;;;;;;;;32.67;22.33;;;;;13.94;50.60;100854.78;5057404;28;45315;-46
2022/04/20 00:25:20;;;;;;;;;30.67;24.67;;;;;13.91;50.95;100855.97;5057442;28;45408;-45
2022/04/20 00:27:46;;;;;;;;;23.67;21.00;;;;;13.86;51.27;100852.09;5072661;28;46503;-46
2022/04/20 00:30:12;;;;;;;;;19.00;17.33;;;;;13.72;51.18;100827.69;5072493;27;45346;-45
2022/04/20 00:32:38;;;;;;;;;33.00;27.00;;;;;13.81;51.30;100844.56;5057329;28;45465;-46
2022/04/20 00:35:08;;;;;;;;;34.00;26.33;;;;;13.74;51.43;100846.25;5056893;28;45415;-45
2022/04/20 00:37:34;;;;;;;;;51.00;33.00;;;;;13.66;51.00;100832.88;5056935;28;47324;-47
2022/04/20 00:40:02;;;;;;;;;42.75;31.25;;;;;13.75;51.56;100855.94;5057112;28;45514;-47
2022/04/20 00:42:28;;;;;;;;;34.75;32.00;;;;;13.72;51.66;100851.75;5057351;28;45325;-47
2022/04/20 00:44:54;;;;;;;;;38.50;33.00;;;;;13.67;51.89;100843.38;5057364;28;45502;-48
2022/04/20 00:47:21;;;;;;;;;41.75;32.50;;;;;13.70;52.08;100847.59;5056899;28;46767;-47
2022/04/20 00:49:47;;;;;;;;;35.25;28.75;;;;;13.66;51.89;100841.72;5056826;28;45249;-45
2022/04/20 00:52:13;;;;;;;;;33.00;26.67;;;;;13.54;51.56;100827.00;5056761;28;45352;-45
2022/04/20 00:54:38;;;;;;;;;34.33;26.67;;;;;13.63;51.78;100842.03;5057098;28;45345;-47
2022/04/20 00:57:04;;;;;;;;;32.67;28.67;;;;;13.60;52.20;100839.69;5056782;28;45946;-45
2022/04/20 00:59:31;;;;;;;;;32.00;27.67;;;;;13.58;52.04;100836.34;5056613;28;45404;-45
2022/04/20 01:01:58;;;;;;;;;32.67;26.67;;;;;13.56;52.69;100840.19;5057057;28;45469;-45
2022/04/20 01:04:24;;;;;;;;;31.50;28.25;;;;;13.53;52.61;100835.19;5056810;28;45443;-43
2022/04/20 01:06:50;;;;;;;;;45.00;28.00;;;;;13.54;52.60;100837.69;5056633;28;46074;-44
2022/04/20 01:09:16;;;;;;;;;35.50;27.25;;;;;13.53;52.28;100844.03;5057139;28;45314;-46
2022/04/20 01:11:42;;;;;;;;;41.75;33.75;;;;;13.50;52.98;100835.50;5056979;28;45354;-45
2022/04/20 01:14:08;;;;;;;;;37.25;31.75;;;;;13.49;52.49;100834.66;5057080;28;45239;-45
2022/04/20 01:16:33;;;;;;;;;36.50;31.25;;;;;13.47;52.54;100832.13;5057561;28;46361;-44
2022/04/20 01:19:01;;;;;;;;;35.00;31.00;;;;;13.45;52.40;100826.13;5060780;28;45407;-45
2022/04/20 01:21:26;;;;;;;;;46.75;35.00;;;;;13.45;52.59;100830.66;5061170;28;45286;-48
2022/04/20 01:23:51;;;;;;;;;37.75;33.25;;;;;13.45;53.32;100836.84;5061987;28;45388;-46
2022/04/20 01:26:17;;;;;;;;;30.50;27.00;;;;;13.42;53.05;100826.47;5062054;28;46121;-45
2022/04/20 01:28:44;;;;;;;;;39.25;29.75;;;;;13.42;53.05;100828.31;5061434;28;45483;-46
2022/04/20 01:31:19;;;;;;;;;40.25;30.50;;;;;13.36;53.15;100824.44;5061168;28;45297;-47
2022/04/20 01:33:44;;;;;;;;;46.00;28.00;;;;;13.34;53.33;100820.25;5061107;28;45478;-45
2022/04/20 01:36:11;;;;;;;;;39.25;32.25;;;;;13.33;53.32;100824.78;5060103;28;45898;-46
2022/04/20 01:38:38;;;;;;;;;40.75;32.50;;;;;13.25;53.61;100805.22;5060814;28;45406;-48
2022/04/20 01:41:04;;;;;;;;;41.50;32.50;;;;;13.31;52.90;100826.75;5060659;28;45416;-47
2022/04/20 01:43:29;;;;;;;;;38.00;30.25;;;;;13.30;53.36;100825.09;5060604;28;45360;-44
2022/04/20 01:45:55;;;;;;;;;37.75;29.00;;;;;13.25;53.45;100826.59;5060394;28;45425;-47
2022/04/20 01:48:20;;;;;;;;;50.50;36.00;;;;;13.29;53.36;100833.28;5059911;28;46081;-48
2022/04/20 01:53:30;;;;;;;;;39.50;30.75;;;;;13.19;53.78;100822.69;5060037;28;45388;-47
2022/04/20 01:55:56;;;;;;;;;35.50;32.75;;;;;13.10;53.58;100816.47;5059341;28;46835;-45
2022/04/20 01:58:21;;;;;;;;;37.50;30.00;;;;;13.10;53.97;100818.31;5059329;28;45374;-44
2022/04/20 02:00:47;;;;;;;;;38.75;32.00;;;;;13.15;54.35;100829.38;5059761;28;45305;-45
2022/04/20 02:03:13;;;;;;;;;32.00;30.75;;;;;13.11;54.07;100836.03;5058522;28;45365;-45
2022/04/20 02:05:39;;;;;;;;;38.75;33.25;;;;;13.02;54.04;100824.47;5059330;28;47231;-47
2022/04/20 02:08:04;;;;;;;;;40.75;34.75;;;;;13.02;53.68;100824.47;5059407;28;45370;-46
2022/04/20 02:10:30;;;;;;;;;41.00;33.50;;;;;13.01;54.03;100828.13;5059408;28;45233;-46
2022/04/20 02:12:56;;;;;;;;;38.25;35.00;;;;;12.97;54.20;100824.09;5059774;28;45249;-45
2022/04/20 02:15:21;;;;;;;;;36.75;32.00;;;;;12.90;54.32;100821.25;5059320;28;45310;-45
2022/04/20 02:17:46;;;;;;;;;39.00;33.75;;;;;12.93;54.79;100833.41;5059328;28;45437;-45
2022/04/20 02:20:12;;;;;;;;;40.75;33.00;;;;;12.91;54.76;100824.75;5059265;28;45439;-45
2022/04/20 02:22:37;;;;;;;;;40.50;35.75;;;;;12.89;55.17;100816.03;5059559;28;45414;-46
2022/04/20 02:25:03;;;;;;;;;49.50;38.25;;;;;12.87;55.30;100818.88;5059064;28;45214;-46
2022/04/20 02:27:29;;;;;;;;;43.00;38.00;;;;;12.86;55.06;100814.53;5059057;28;45458;-46
2022/04/20 02:29:55;;;;;;;;;44.00;36.50;;;;;12.84;55.05;100799.66;5058378;28;45246;-46
2022/04/20 02:32:22;;;;;;;;;37.25;33.00;;;;;12.81;54.83;100802.66;5059163;28;45332;-46
2022/04/20 02:34:47;;;;;;;;;46.75;34.25;;;;;12.80;55.33;100791.13;5059119;28;47104;-45
2022/04/20 02:37:13;;;;;;;;;45.25;37.00;;;;;12.76;54.43;100786.28;5058822;28;45383;-46
2022/04/20 02:39:40;;;;;;;;;52.00;38.25;;;;;12.81;55.03;100791.97;5059035;28;45244;-46
2022/04/20 02:42:06;;;;;;;;;50.25;34.50;;;;;12.82;55.56;100791.00;5059161;28;45284;-45
2022/04/20 02:44:32;;;;;;;;;48.00;38.75;;;;;12.81;55.62;100786.63;5058703;28;45449;-47
2022/04/20 02:46:58;;;;;;;;;42.00;38.00;;;;;12.68;55.31;100761.25;5058746;28;45622;-46
2022/04/20 02:49:23;;;;;;;;;55.25;39.50;;;;;12.78;54.90;100776.31;5058901;28;45321;-46
2022/04/20 02:51:49;;;;;;;;;50.00;39.00;;;;;12.80;55.21;100772.44;5058919;28;45402;-45
2022/04/20 02:54:14;;;;;;;;;47.75;39.00;;;;;12.82;54.80;100783.00;5058524;28;45338;-46
2022/04/20 02:56:39;;;;;;;;;51.75;39.00;;;;;12.81;54.89;100773.28;5058679;27;45411;-47
2022/04/20 02:59:05;;;;;;;;;52.50;40.75;;;;;12.79;55.46;100781.47;5058561;28;45449;-44
2022/04/20 03:01:30;;;;;;;;;52.25;39.25;;;;;12.77;55.28;100774.59;5059283;28;45487;-46
2022/04/20 03:03:59;;;;;;;;;55.50;41.50;;;;;12.76;54.96;100784.44;5058231;28;46254;-48
2022/04/20 03:06:24;;;;;;;;;50.50;41.00;;;;;12.75;54.81;100774.78;5058274;28;45415;-46
2022/04/20 03:08:50;;;;;;;;;57.25;40.25;;;;;12.46;55.30;100722.59;5058624;28;45301;-45
2022/04/20 03:11:15;;;;;;;;;54.50;39.75;;;;;12.74;55.09;100765.09;5058367;28;45181;-45
2022/04/20 03:13:41;;;;;;;;;52.75;40.00;;;;;12.70;55.00;100763.75;5058331;28;46461;-47
2022/04/20 03:16:06;;;;;;;;;48.50;39.25;;;;;12.71;55.47;100768.91;5058343;28;45518;-45
2022/04/20 03:18:32;;;;;;;;;45.75;38.75;;;;;12.70;55.21;100759.25;5058315;28;45391;-45
2022/04/20 03:21:02;;;;;;;;;54.75;41.25;;;;;12.64;55.48;100754.56;5058456;28;45236;-44
2022/04/20 03:23:28;;;;;;;;;49.75;38.50;;;;;12.68;55.09;100765.72;5058084;28;46086;-46
2022/04/20 03:25:54;;;;;;;;;47.00;39.25;;;;;12.68;55.05;100776.41;5058097;28;45379;-45
2022/04/20 03:28:20;;;;;;;;;54.25;39.75;;;;;12.66;55.77;100768.56;5058131;28;45155;-45
2022/04/20 03:30:45;;;;;;;;;59.75;45.75;;;;;12.64;55.29;100775.03;5058436;28;45332;-45
2022/04/20 03:33:11;;;;;;;;;53.75;42.00;;;;;12.61;55.69;100781.56;5058092;28;46167;-46
2022/04/20 03:35:38;;;;;;;;;55.25;42.50;;;;;12.63;55.72;100784.06;5058005;28;45377;-45
2022/04/20 03:38:05;;;;;;;;;52.00;42.75;;;;;12.62;55.73;100785.88;5057856;28;45305;-45
2022/04/20 03:40:30;;;;;;;;;55.50;40.75;;;;;12.65;55.47;100796.25;5056890;28;45475;-47
2022/04/20 03:42:56;;;;;;;;;55.25;43.00;;;;;12.64;55.80;100789.25;5057509;28;46312;-45
2022/04/20 03:45:21;;;;;;;;;58.00;41.25;;;;;12.65;55.04;100790.91;5057818;28;45373;-48
2022/04/20 03:47:46;;;;;;;;;53.50;43.50;;;;;12.65;55.26;100787.41;5057896;28;45479;-46
2022/04/20 03:50:12;;;;;;;;;58.25;45.75;;;;;12.65;55.72;100790.09;5058132;28;45319;-45
2022/04/20 03:52:38;;;;;;;;;54.25;42.25;;;;;12.64;55.19;100793.72;5057457;28;45338;-46
2022/04/20 03:55:04;;;;;;;;;40.50;37.50;;;;;12.61;55.64;100799.41;5056462;28;45240;-47
2022/04/20 03:57:30;;;;;;;;;61.75;46.00;;;;;12.62;55.36;100803.75;5057696;28;45260;-46
2022/04/20 03:59:55;;;;;;;;;54.00;41.50;;;;;12.58;55.29;100808.56;5057467;27;45398;-47
2022/04/20 04:02:20;;;;;;;;;60.75;44.50;;;;;12.59;55.69;100810.22;5057495;28;45252;-47
2022/04/20 04:04:46;;;;;;;;;57.75;43.75;;;;;12.59;55.26;100815.56;5057596;28;45371;-48
2022/04/20 04:07:11;;;;;;;;;59.75;44.50;;;;;12.51;55.55;100802.16;5057377;28;45298;-47
2022/04/20 04:09:38;;;;;;;;;49.75;41.00;;;;;12.57;55.88;100809.56;5056557;28;45427;-46
2022/04/20 04:12:04;;;;;;;;;57.00;43.75;;;;;12.54;55.36;100807.19;5057080;28;46071;-48
2022/04/20 04:14:29;;;;;;;;;50.25;42.25;;;;;12.52;55.49;100803.84;5057370;28;45458;-48
2022/04/20 04:16:55;;;;;;;;;56.50;42.75;;;;;12.48;55.67;100794.50;5057704;28;45556;-46
2022/04/20 04:19:20;;;;;;;;;56.75;41.25;;;;;12.06;55.83;100728.56;5058152;28;45304;-46
2022/04/20 04:21:46;;;;;;;;;55.50;42.50;;;;;12.42;56.16;100777.28;5057777;28;47103;-44
2022/04/20 04:24:34;;;;;;;;;64.75;44.75;;;;;12.44;55.11;100790.47;5057197;28;45383;-45
2022/04/20 04:26:59;;;;;;;;;58.00;44.50;;;;;12.28;55.57;100775.19;5057066;28;45495;-45
2022/04/20 04:29:24;;;;;;;;;62.75;47.75;;;;;12.39;55.60;100790.94;5057376;28;45281;-46
2022/04/20 04:31:50;;;;;;;;;55.50;46.25;;;;;12.39;55.95;100793.63;5056955;28;46439;-48
2022/04/20 04:34:15;;;;;;;;;64.25;47.25;;;;;12.39;55.91;100798.13;5057089;28;45167;-48
2022/04/20 04:36:40;;;;;;;;;62.25;45.50;;;;;12.38;55.52;100797.25;5057156;28;45380;-48
2022/04/20 04:39:06;;;;;;;;;60.25;46.75;;;;;12.29;55.83;100789.38;5057243;28;45427;-46
2022/04/20 04:41:31;;;;;;;;;60.50;46.75;;;;;12.36;55.43;100801.09;5056886;28;46981;-46
2022/04/20 04:43:56;;;;;;;;;63.75;45.25;;;;;12.31;55.92;100790.06;5072475;28;45569;-48
2022/04/20 04:49:06;;;;;;;;;64.25;47.75;;;;;12.23;55.35;100785.50;5057277;28;45297;-47
2022/04/20 04:51:31;;;;;;;;;68.50;48.75;;;;;12.35;55.59;100818.09;5055996;28;46103;-45
2022/04/20 04:53:57;;;;;;;;;59.75;48.25;;;;;12.33;55.53;100812.91;5056658;28;45316;-46
2022/04/20 04:56:22;;;;;;;;;64.25;49.25;;;;;12.31;55.90;100814.06;5056736;28;45182;-45
2022/04/20 04:58:47;;;;;;;;;61.50;45.50;;;;;12.32;55.80;100815.72;5056693;28;45532;-46
2022/04/20 05:01:13;;;;;;;;;67.75;47.25;;;;;12.32;56.23;100815.72;5056419;28;45958;-47
2022/04/20 05:03:39;;;;;;;;;56.75;45.00;;;;;12.32;55.87;100818.41;5056737;28;45448;-48
2022/04/20 05:06:04;;;;;;;;;65.75;48.25;;;;;12.34;56.06;100817.22;5056666;28;45370;-45
2022/04/20 05:08:29;;;;;;;;;55.25;44.75;;;;;12.32;55.72;100813.06;5056768;28;45434;-47
2022/04/20 05:10:55;;;;;;;;;63.25;44.25;;;;;12.29;55.93;100792.03;5056389;28;45803;-45
2022/04/20 05:13:21;;;;;;;;;59.75;46.50;;;;;12.37;56.09;100797.41;5056427;28;45249;-45
2022/04/20 05:15:49;;;;;;;;;59.75;45.00;;;;;12.36;56.01;100799.25;5056755;28;45350;-44
2022/04/20 05:18:14;;;;;;;;;62.25;46.25;;;;;12.36;55.30;100801.09;5056662;28;45211;-44
2022/04/20 05:20:40;;;;;;;;;64.75;49.50;;;;;12.40;55.98;100802.44;5056471;28;45398;-45
2022/04/20 05:23:08;;;;;;;;;62.50;43.75;;;;;12.41;55.75;100798.78;5056284;28;45328;-45
2022/04/20 05:25:34;;;;;;;;;59.00;48.00;;;;;12.44;55.24;100804.63;5056419;28;45431;-45
2022/04/20 05:27:59;;;;;;;;;60.25;45.75;;;;;12.46;55.16;100807.13;5056643;28;45312;-44
2022/04/20 05:30:25;;;;;;;;;66.25;46.25;;;;;12.48;55.39;100807.84;5056002;28;46022;-46
2022/04/20 05:32:51;;;;;;;;;56.75;43.50;;;;;12.54;54.92;100817.88;5056503;28;45262;-45
2022/04/20 05:35:16;;;;;;;;;62.25;45.00;;;;;12.57;55.36;100817.56;5056349;28;45364;-44
2022/04/20 05:43:10;;;;;;;;;64.00;47.00;;;;;12.67;55.31;100828.94;5055976;28;45459;-46
2022/04/20 05:45:36;;;;;;;;;60.00;46.00;;;;;12.73;55.18;100827.50;5056245;28;45438;-46
2022/04/20 05:48:03;;;;;;;;;61.50;46.50;;;;;12.79;54.83;100828.69;5056371;28;45301;-46
2022/04/20 05:50:29;;;;;;;;;62.75;47.50;;;;;12.83;54.50;100824.69;5055719;28;47085;-46
2022/04/20 05:52:54;;;;;;;;;63.75;50.25;;;;;12.76;54.54;100802.31;5055771;28;45451;-46
2022/04/20 05:55:20;;;;;;;;;64.00;44.00;;;;;12.94;54.29;100825.28;5056294;28;45304;-44
2022/04/20 05:57:48;;;;;;;;;58.00;46.25;;;;;12.99;54.39;100825.63;5056410;28;45575;-46
2022/04/20 06:00:15;;;;;;;;;61.00;45.75;;;;;13.05;54.15;100813.44;5035791;28;45403;-45
2022/04/20 06:02:40;;;;;;;;;62.00;46.00;;;;;13.07;54.13;100811.47;5035775;28;45354;-45
2022/04/20 06:05:06;;;;;;;;;66.50;47.50;;;;;13.12;54.54;100814.47;5038802;28;45317;-46
2022/04/20 06:07:33;;;;;;;;;63.75;49.25;;;;;13.13;54.32;100810.81;5039578;28;45353;-45
2022/04/20 06:09:58;;;;;;;;;59.25;45.00;;;;;13.18;53.99;100813.81;5038995;28;46243;-47
2022/04/20 06:12:24;;;;;;;;;62.00;47.00;;;;;13.13;53.58;100804.63;5039035;28;45300;-48
2022/04/20 06:14:49;;;;;;;;;61.75;47.25;;;;;13.15;53.26;100806.16;5037922;28;45262;-44
2022/04/20 06:17:15;;;;;;;;;67.25;48.00;;;;;13.29;53.57;100814.56;5039622;28;45369;-44
2022/04/20 06:19:40;;;;;;;;;63.75;47.75;;;;;13.34;53.57;100815.75;5039115;28;45303;-44
2022/04/20 06:22:06;;;;;;;;;62.50;47.25;;;;;13.38;52.73;100813.59;5038953;28;45333;-45
2022/04/20 06:24:31;;;;;;;;;62.25;47.00;;;;;13.46;52.80;100816.28;5038925;28;45797;-47
2022/04/20 06:26:57;;;;;;;;;68.50;49.75;;;;;13.50;53.12;100816.78;5038800;28;45400;-46
2022/04/20 06:29:22;;;;;;;;;66.50;46.50;;;;;13.18;52.10;100749.72;5038424;28;45322;-46
2022/04/20 06:31:48;;;;;;;;;62.25;49.75;;;;;13.61;52.30;100822.69;5038916;28;45218;-47
2022/04/20 06:34:13;;;;;;;;;63.50;46.50;;;;;13.67;52.12;100822.00;5039109;28;45155;-45
2022/04/20 06:36:38;;;;;;;;;54.25;44.50;;;;;13.71;52.19;100818.00;5039164;28;45263;-44
2022/04/20 06:39:04;;;;;;;;;58.50;45.25;;;;;13.77;51.64;100813.81;5038634;28;45400;-45
2022/04/20 06:41:29;;;;;;;;;63.00;47.75;;;;;13.86;51.35;100814.66;5038754;28;45326;-47
2022/04/20 06:43:56;;;;;;;;;58.00;46.00;;;;;13.94;51.29;100814.66;5038956;28;45262;-46
2022/04/20 06:46:21;;;;;;;;;59.75;49.25;;;;;14.04;51.25;100826.06;5039389;28;45304;-48
2022/04/20 06:48:46;;;;;;;;;58.25;46.00;;;;;14.16;50.93;100830.06;5038537;28;46437;-47
2022/04/20 06:51:12;;;;;;;;;64.50;46.50;;;;;14.27;50.42;100825.34;5038644;28;45366;-47
2022/04/20 06:59:12;;;;;;;;;65.25;44.75;;;;;14.64;49.77;100814.97;5049196;28;46044;-48
2022/04/20 07:01:38;;;;;;;;;58.00;44.25;;;;;14.71;49.62;100817.78;5058516;28;45179;-47
2022/04/20 07:04:03;;;;;;;;;61.50;46.50;;;;;14.82;49.23;100822.75;5058898;28;45361;-47
2022/04/20 07:06:29;;;;;;;;;63.00;44.00;;;;;15.01;48.82;100826.91;5059022;28;45194;-45
2022/04/20 07:08:54;;;;;;;;;55.25;43.25;;;;;15.10;48.09;100800.91;5058296;28;46276;-48
2022/04/20 07:11:20;;;;;;;;;59.25;44.00;;;;;15.40;47.54;100820.66;5058191;28;45407;-46
2022/04/20 07:13:50;;;;;;;;;53.00;41.00;;;;;15.75;46.86;100823.81;5058780;28;45455;-47
2022/04/20 07:16:15;;;;;;;;;56.50;42.50;;;;;16.42;45.46;100787.19;5058456;28;45321;-45
2022/04/20 07:18:41;;;;;;;;;57.25;42.50;;;;;17.49;43.25;100818.13;5058125;28;45396;-50
2022/04/20 07:21:06;;;;;;;;;57.00;41.25;;;;;18.03;42.11;100813.13;5058383;28;45390;-44
2022/04/20 07:23:32;;;;;;;;;59.00;45.25;;;;;18.29;41.79;100820.63;5058188;28;45360;-47
2022/04/20 07:25:57;;;;;;;;;55.00;41.00;;;;;18.79;40.77;100815.16;5058138;28;45871;-45
2022/04/20 07:28:23;;;;;;;;;51.50;39.00;;;;;19.31;39.94;100811.03;5058115;28;46214;-45
2022/04/20 07:30:48;;;;;;;;;58.00;44.00;;;;;19.34;39.05;100816.00;5058092;28;45461;-46
2022/04/20 07:33:14;;;;;;;;;57.00;42.00;;;;;19.35;39.67;100820.41;5058432;28;45223;-47
2022/04/20 07:35:40;;;;;;;;;46.00;38.00;;;;;19.30;39.04;100823.72;5058513;28;45365;-45
2022/04/20 07:38:05;;;;;;;;;51.00;39.00;;;;;19.25;39.06;100828.03;5057796;28;45977;-46
2022/04/20 07:40:31;;;;;;;;;50.33;38.67;;;;;19.04;38.92;100824.41;5058121;28;45434;-44
2022/04/20 07:42:56;;;;;;;;;49.33;36.00;;;;;19.02;39.34;100828.34;5058151;28;45472;-47
2022/04/20 07:45:26;;;;;;;;;50.33;38.67;;;;;19.07;39.01;100825.88;5058305;28;45360;-47
2022/04/20 07:47:55;;;;;;;;;51.67;40.33;;;;;19.06;38.70;100818.81;5057976;28;45960;-46
2022/04/20 07:50:25;;;;;;;;;47.67;37.00;;;;;19.34;38.39;100821.41;5057873;28;45823;-45
2022/04/20 07:52:55;;;;;;;;;45.33;36.67;;;;;19.79;38.45;100824.47;5057911;28;45161;-46
2022/04/20 07:55:25;;;;;;;;;46.00;35.33;;;;;20.32;37.40;100822.66;5057966;28;45650;-48
2022/04/20 07:57:53;;;;;;;;;40.33;33.00;;;;;20.69;35.95;100812.22;5057692;28;46159;-46
2022/04/20 08:00:19;;;;;;;;;45.00;34.33;;;;;21.16;35.97;100818.31;5058050;28;45178;-45
2022/04/20 08:02:45;;;;;;;;;41.67;35.00;;;;;21.61;34.59;100824.56;5057777;28;45449;-45
2022/04/20 08:05:13;;;;;;;;;40.67;31.33;;;;;22.13;33.90;100811.72;5056198;28;45492;-46
2022/04/20 08:07:39;;;;;;;;;47.00;35.67;;;;;22.61;32.93;100808.34;5057031;28;46182;-44
2022/04/20 08:10:08;;;;;;;;;41.33;34.00;;;;;23.07;32.97;100817.06;5057479;28;45392;-46
2022/04/20 08:12:39;;;;;;;;;42.33;32.33;;;;;23.19;32.86;100814.41;5057636;28;45285;-44
2022/04/20 08:15:05;;;;;;;;;39.00;31.33;;;;;23.33;32.77;100808.56;5057833;28;45385;-45
2022/04/20 08:17:32;;;;;;;;;36.00;31.00;;;;;23.69;31.20;100806.88;5057229;28;46448;-44
2022/04/20 08:19:57;;;;;;;;;36.67;32.00;;;;;24.29;30.76;100812.16;5057352;28;45344;-44
2022/04/20 08:22:24;;;;;;;;;35.67;30.67;;;;;24.94;32.22;100810.34;5057425;28;45312;-45
2022/04/20 08:24:49;;;;;;;;;34.00;31.00;;;;;25.75;28.59;100797.53;5057353;28;45499;-46
2022/04/20 08:27:15;;;;;;;;;36.33;31.33;;;;;27.07;27.34;100804.16;5056427;28;45374;-46
2022/04/20 08:29:42;;;;;;;;;32.33;29.00;;;;;28.62;24.34;100795.22;5057227;28;45444;-44
2022/04/20 08:32:08;;;;;;;;;37.33;31.00;;;;;29.86;22.18;100806.31;5057352;28;45301;-44
2022/04/20 08:34:33;;;;;;;;;25.50;22.25;;;;;30.65;22.32;100801.31;5057536;28;45319;-45
2022/04/20 08:36:58;;;;;;;;;37.25;27.50;;;;;31.51;21.02;100800.13;5057100;28;46119;-44
2022/04/20 08:39:24;;;;;;;;;31.75;27.50;;;;;32.29;23.75;100804.75;5057204;28;45366;-46
2022/04/20 08:41:49;;;;;;;;;25.50;24.50;;;;;33.08;19.27;100804.44;5057199;28;45464;-48
2022/04/20 08:44:24;;;;;;;;;28.50;21.50;;;;;33.75;18.63;100802.38;5057402;28;45506;-44
2022/04/20 08:46:53;;;;;;;;;30.50;27.00;;;;;34.56;17.76;100804.91;5056805;28;46189;-46
2022/04/20 08:49:18;;;;;;;;;30.80;25.80;;;;;35.15;17.23;100797.59;5056888;28;45451;-49
2022/04/20 08:54:28;;;;;;;;;27.20;23.40;;;;;36.54;17.39;100804.19;5057110;28;45391;-45
2022/04/20 08:59:39;;;;;;;;;25.40;23.20;;;;;37.99;15.00;100803.91;5056404;28;45550;-48
2022/04/20 09:02:04;;;;;;;;;23.40;22.00;;;;;38.55;15.02;100793.59;5056867;28;45386;-47
2022/04/20 09:04:30;;;;;;;;;21.00;20.25;;;;;39.11;15.33;100796.25;5056939;28;45446;-46
2022/04/20 09:06:55;;;;;;;;;24.25;22.25;;;;;39.43;13.62;100803.84;5056652;28;46278;-44
2022/04/20 09:09:28;;;;;;;;;22.25;22.25;;;;;39.76;13.62;100802.31;5056771;28;45470;-45
2022/04/20 09:11:53;;;;;;;;;19.40;18.20;;;;;39.61;15.12;100806.50;5056532;28;45428;-44
2022/04/20 09:14:19;;;;;;;;;22.75;19.00;;;;;39.14;14.20;100793.56;5056805;28;45309;-47
2022/04/20 09:16:46;;;;;;;;;27.00;22.40;;;;;38.88;14.89;100801.28;5056540;28;45391;-46
2022/04/20 09:19:11;;;;;;;;;23.60;21.40;;;;;38.53;13.24;100800.66;5056412;28;45383;-45
2022/04/20 09:21:37;;;;;;;;;21.75;21.75;;;;;38.82;13.69;100799.88;5056691;28;45312;-44
2022/04/20 09:24:07;;;;;;;;;26.50;22.00;;;;;38.75;14.78;100803.13;5056845;28;45321;-45
2022/04/20 09:26:32;;;;;;;;;22.80;20.80;;;;;38.31;14.47;100794.16;5054942;28;46992;-47
2022/04/20 09:29:05;;;;;;;;;23.75;22.25;;;;;38.06;15.90;100801.44;5056598;28;45293;-44
2022/04/20 09:31:41;;;;;;;;;20.20;18.00;;;;;38.22;14.62;100796.13;5056463;28;45394;-44
2022/04/20 09:34:07;;;;;;;;;20.00;20.00;;;;;38.30;14.66;100786.97;5056545;28;45435;-45
2022/04/20 09:36:45;;;;;;;;;18.75;17.25;;;;;38.92;15.41;100780.81;5056406;28;45690;-51
2022/04/20 09:39:12;;;;;;;;;17.20;17.00;;;;;38.99;13.77;100779.47;5059338;28;45505;-48
2022/04/20 09:42:05;;;;;;;;;17.80;16.60;;;;;39.48;14.11;100788.91;5058559;28;45354;-45
2022/04/20 09:44:31;;;;;;;;;16.60;16.20;;;;;39.62;13.88;100781.09;5058379;28;45417;-44
2022/04/20 09:50:01;;;;;;;;;19.80;17.40;;;;;39.74;13.28;100777.59;5059546;28;45356;-45
2022/04/20 09:52:42;;;;;;;;;19.40;17.00;;;;;40.07;13.51;100776.72;5059821;28;45413;-44
2022/04/20 09:55:12;;;;;;;;;24.00;19.00;;;;;40.77;13.99;100779.50;5059801;28;45343;-45
2022/04/20 09:57:37;;;;;;;;;18.20;16.80;;;;;41.38;12.14;100780.22;5059261;28;47255;-45
2022/04/20 10:00:14;;;;;;;;;20.00;18.25;;;;;41.74;12.12;100767.25;5059426;28;45405;-45
2022/04/20 10:02:53;;;;;;;;;18.60;18.60;;;;;42.30;13.05;100766.34;5059726;28;45455;-45
2022/04/20 10:05:23;;;;;;;;;19.80;16.60;;;;;43.08;11.47;100761.81;5059863;28;45372;-48
2022/04/20 10:07:48;;;;;;;;;21.60;20.40;;;;;43.58;11.77;100765.69;5059452;28;47217;-46
2022/04/20 10:10:14;;;;;;;;;17.25;17.25;;;;;43.91;12.62;100773.53;5059618;28;45310;-46
2022/04/20 10:12:42;;;;;;;;;16.80;16.20;;;;;43.82;12.50;100768.13;5059225;28;45480;-48
2022/04/20 10:17:56;;;;;;;;;19.00;18.00;;;;;44.15;10.70;100761.13;5059330;28;45838;-47
2022/04/20 10:20:25;;;;;;;;;17.40;14.60;;;;;44.40;10.91;100753.13;5059412;28;45438;-48
2022/04/20 10:22:52;;;;;;;;;17.00;13.60;;;;;44.80;10.65;100760.19;5059365;28;45298;-49
2022/04/20 10:25:18;;;;;;;;;17.80;14.60;;;;;44.70;11.29;100753.22;5059415;28;45354;-47
2022/04/20 10:27:58;;;;;;;;;16.25;14.50;;;;;44.61;11.58;100749.84;5059196;28;46273;-45
2022/04/20 10:30:32;;;;;;;;;16.00;15.20;;;;;44.23;11.55;100746.03;5059201;28;45451;-47
2022/04/20 10:33:06;;;;;;;;;17.60;16.00;;;;;43.81;11.51;100738.47;5059035;28;45455;-48
2022/04/20 10:35:32;;;;;;;;;15.20;14.00;;;;;43.95;11.21;100737.94;5059197;28;45302;-47
2022/04/20 10:38:16;;;;;;;;;16.20;15.60;;;;;44.40;11.53;100749.53;5059002;28;47136;-45
2022/04/20 10:41:11;;;;;;;;;18.20;17.00;;;;;44.63;10.95;100741.03;5059072;28;45476;-48
2022/04/20 10:43:39;;;;;;;;;14.60;13.60;;;;;44.67;10.14;100733.50;5054498;28;45361;-46
2022/04/20 10:46:16;;;;;;;;;11.00;9.40;;;;;44.51;11.16;100730.88;5059105;28;45454;-47
2022/04/20 10:48:45;;;;;;;;;13.00;9.80;;;;;44.80;10.83;100732.13;5058522;28;47169;-46
2022/04/20 10:51:14;;;;;;;;;11.00;11.00;;;;;44.88;10.65;100722.59;5058641;28;46143;-48
2022/04/20 10:53:39;;;;;;;;;11.40;10.00;;;;;45.15;11.04;100714.94;5059108;28;45452;-45
2022/04/20 10:56:05;;;;;;;;;9.00;9.00;;;;;45.34;9.89;100716.75;5058970;28;45315;-49
2022/04/20 10:58:32;;;;;;;;;7.00;5.50;;;;;45.53;9.73;100715.78;5058202;28;46627;-49
2022/04/20 11:01:09;;;;;;;;;5.20;5.20;;;;;45.54;11.19;100720.22;5058857;28;45358;-49
2022/04/20 11:04:04;;;;;;;;;11.60;9.00;;;;;45.32;9.94;100719.16;5058564;28;45235;-47
2022/04/20 11:06:58;;;;;;;;;7.20;7.20;;;;;45.39;9.70;100710.00;5058666;28;45494;-50
2022/04/20 11:09:52;;;;;;;;;8.20;8.00;;;;;45.26;10.71;100701.84;5058265;28;45381;-48
2022/04/20 11:21:03;;;;;;;;;10.00;10.00;;;;;44.24;10.83;100693.56;5035756;28;45392;-46
2022/04/20 11:24:03;;;;;;;;;6.00;6.00;;;;;43.86;10.97;100697.34;5035807;28;45352;-48
2022/04/20 11:26:39;;;;;;;;;6.00;6.00;;;;;42.97;11.16;100696.38;5035995;28;45769;-48
2022/04/20 11:29:14;;;;;;;;;8.40;5.20;;;;;42.57;10.89;100695.50;5036130;28;45632;-46
2022/04/20 11:31:46;;;;;;;;;8.60;5.60;;;;;42.20;10.72;100688.59;5035709;28;46638;-44
2022/04/20 11:34:15;;;;;;;;;3.00;3.00;;;;;42.22;10.09;100694.63;5035714;28;45562;-45
2022/04/20 11:36:44;;;;;;;;;5.40;5.20;;;;;42.15;10.96;100698.09;5036199;28;45531;-46
2022/04/20 11:39:11;;;;;;;;;5.00;4.40;;;;;41.72;11.01;100682.16;5035861;28;45477;-46
2022/04/20 11:41:38;;;;;;;;;4.00;4.00;;;;;41.36;10.94;100700.75;5035265;28;45535;-47
2022/04/20 11:44:18;;;;;;;;;3.60;3.60;;;;;41.26;11.75;100681.72;5035498;28;45438;-48
2022/04/20 11:46:44;;;;;;;;;3.00;3.00;;;;;40.71;10.85;100692.47;5035753;28;45517;-50